createdAt,value
2019-04-21T00:01:50.318Z,102751.85
2019-04-21T00:04:40.551Z,102745.25
2019-04-21T00:07:40.318Z,102739.48
2019-04-21T00:10:06.427Z,102739.39
2019-04-21T00:12:35.666Z,102740.06
2019-04-21T00:15:07.367Z,102734.80
2019-04-21T00:17:32.114Z,102727.63
2019-04-21T00:20:20.480Z,102724.78
2019-04-21T00:22:58.593Z,102730.38
2019-04-21T00:25:38.864Z,102722.37
2019-04-21T00:28:25.374Z,102718.43
2019-04-21T00:30:57.915Z,102725.36
2019-04-21T00:33:21.412Z,102726.55
2019-04-21T00:35:59.930Z,102719.55
2019-04-21T00:38:58.752Z,102724.33
2019-04-21T00:41:29.410Z,102719.17
2019-04-21T00:43:59.848Z,102714.41
2019-04-21T00:46:35.160Z,102711.40
2019-04-21T00:49:15.240Z,102707.05
2019-04-21T00:52:11.438Z,102701.61
2019-04-21T00:54:53.773Z,102702.59
2019-04-21T00:57:25.259Z,102700.42
2019-04-21T00:59:59.137Z,102696.72
2019-04-21T01:02:40.255Z,102690.36
2019-04-21T01:05:16.938Z,102685.53
2019-04-21T01:07:46.958Z,102676.27
2019-04-21T01:10:53.198Z,102675.93
2019-04-21T01:13:43.943Z,102678.80
2019-04-21T01:16:14.808Z,102682.21
2019-04-21T01:18:49.265Z,102673.13
2019-04-21T01:21:14.055Z,102676.02
2019-04-21T01:23:44.574Z,102675.45
2019-04-21T01:26:37.264Z,102676.66
2019-04-21T01:29:12.108Z,102670.29
2019-04-21T01:31:48.252Z,102668.09
2019-04-21T01:34:33.032Z,102671.84
2019-04-21T01:37:05.661Z,102663.45
2019-04-21T01:39:47.943Z,102661.76
2019-04-21T01:42:48.415Z,102660.92
2019-04-21T01:45:21.883Z,102652.36
2019-04-21T01:47:58.535Z,102652.36
2019-04-21T01:50:36.594Z,102651.22
2019-04-21T01:53:28.310Z,102649.77
2019-04-21T01:56:11.759Z,102648.20
2019-04-21T01:58:44.285Z,102647.20
2019-04-21T02:01:30.158Z,102641.80
2019-04-21T02:04:02.766Z,102646.92
2019-04-21T02:06:45.630Z,102641.61
2019-04-21T02:09:15.356Z,102646.97
2019-04-21T02:12:01.037Z,102647.05
2019-04-21T02:14:41.239Z,102640.68
2019-04-21T02:17:14.532Z,102637.95
2019-04-21T02:19:41.220Z,102641.98
2019-04-21T02:22:33.871Z,102644.05
2019-04-21T02:25:02.963Z,102638.31
2019-04-21T02:27:42.975Z,102633.25
2019-04-21T02:30:29.699Z,102628.64
2019-04-21T02:35:50.769Z,102636.95
2019-04-21T02:38:27.620Z,102628.64
2019-04-21T02:43:25.154Z,102631.69
2019-04-21T02:46:12.476Z,102629.50
2019-04-21T02:48:49.033Z,102621.66
2019-04-21T02:51:21.862Z,102628.28
2019-04-21T02:54:37.368Z,102619.88
2019-04-21T02:59:17.041Z,102613.16
2019-04-21T03:02:25.031Z,102612.73
2019-04-21T03:05:11.528Z,102607.59
2019-04-21T03:07:52.096Z,102600.55
2019-04-21T03:10:26.717Z,102598.08
2019-04-21T03:12:56.951Z,102590.15
2019-04-21T03:15:45.083Z,102589.27
2019-04-21T03:18:19.102Z,102585.64
2019-04-21T03:20:51.124Z,102581.27
2019-04-21T03:23:29.450Z,102577.48
2019-04-21T03:26:14.301Z,102583.55
2019-04-21T03:28:35.648Z,102576.98
2019-04-21T03:31:36.006Z,102579.17
2019-04-21T03:34:28.524Z,102577.19
2019-04-21T03:36:47.575Z,102571.84
2019-04-21T03:39:04.618Z,102569.80
2019-04-21T03:41:50.540Z,102563.70
2019-04-21T03:44:24.378Z,102564.32
2019-04-21T03:47:11.068Z,102562.90
2019-04-21T03:49:45.477Z,102556.42
2019-04-21T03:52:36.604Z,102559.33
2019-04-21T03:58:19.512Z,102550.48
2019-04-21T04:01:05.564Z,102553.14
2019-04-21T04:07:25.015Z,102548.20
2019-04-21T04:10:06.466Z,102553.55
2019-04-21T04:12:28.565Z,102552.47
2019-04-21T04:17:40.773Z,102550.09
2019-04-21T04:20:28.127Z,102549.69
2019-04-21T04:25:33.523Z,102551.19
2019-04-21T04:30:56.353Z,102547.27
2019-04-21T04:33:41.787Z,102550.84
2019-04-21T04:36:33.917Z,102546.92
2019-04-21T04:39:01.955Z,102551.58
2019-04-21T04:41:32.346Z,102551.64
2019-04-21T04:44:13.702Z,102544.98
2019-04-21T04:52:32.514Z,102539.78
2019-04-21T04:54:59.499Z,102544.02
2019-04-21T05:00:28.829Z,102545.50
2019-04-21T05:02:40.243Z,102536.98
2019-04-21T05:05:26.688Z,102542.35
2019-04-21T05:08:31.507Z,102536.22
2019-04-21T05:10:54.444Z,102533.55
2019-04-21T05:13:20.406Z,102541.83
2019-04-21T05:15:55.878Z,102534.00
2019-04-21T05:18:25.350Z,102531.44
2019-04-21T05:21:12.460Z,102531.24
2019-04-21T05:23:32.608Z,102537.10
2019-04-21T05:26:03.259Z,102526.39
2019-04-21T05:28:41.970Z,102528.57
2019-04-21T05:31:46.304Z,102532.05
2019-04-21T05:34:22.365Z,102529.42
2019-04-21T05:37:01.425Z,102525.02
2019-04-21T05:39:52.409Z,102525.23
2019-04-21T05:42:28.408Z,102529.70
2019-04-21T05:45:31.251Z,102523.77
2019-04-21T05:48:19.252Z,102524.99
2019-04-21T05:50:46.150Z,102520.32
2019-04-21T05:53:32.238Z,102517.08
2019-04-21T05:56:03.604Z,102517.06
2019-04-21T05:58:40.630Z,102515.75
2019-04-21T06:01:23.734Z,102513.80
2019-04-21T06:03:59.677Z,102516.52
2019-04-21T06:06:33.617Z,102513.38
2019-04-21T06:09:08.240Z,102510.98
2019-04-21T06:11:42.456Z,102507.50
2019-04-21T06:14:20.385Z,102510.59
2019-04-21T06:17:04.594Z,102511.20
2019-04-21T06:19:45.131Z,102503.13
2019-04-21T06:22:10.464Z,102500.34
2019-04-21T06:25:15.228Z,102504.36
2019-04-21T06:27:34.093Z,102498.98
2019-04-21T06:30:03.319Z,102500.31
2019-04-21T06:32:50.542Z,102493.90
2019-04-21T06:39:06.430Z,102491.89
2019-04-21T06:44:12.906Z,102494.91
2019-04-21T06:46:44.666Z,102490.45
2019-04-21T06:49:22.266Z,102488.81
2019-04-21T06:52:10.932Z,102484.25
2019-04-21T06:54:45.200Z,102486.33
2019-04-21T06:57:18.432Z,102479.56
2019-04-21T06:59:52.085Z,102478.05
2019-04-21T07:02:43.897Z,102478.02
2019-04-21T07:05:07.925Z,102475.95
2019-04-21T07:07:43.200Z,102474.06
2019-04-21T07:10:20.991Z,102470.75
2019-04-21T07:12:51.110Z,102467.88
2019-04-21T07:15:40.931Z,102464.30
2019-04-21T07:18:11.008Z,102466.93
2019-04-21T07:20:49.041Z,102465.61
2019-04-21T07:23:30.304Z,102465.64
2019-04-21T07:26:02.746Z,102468.77
2019-04-21T07:28:47.938Z,102472.45
2019-04-21T07:31:25.005Z,102466.22
2019-04-21T07:34:21.321Z,102460.84
2019-04-21T07:36:46.410Z,102455.16
2019-04-21T07:39:10.400Z,102453.43
2019-04-21T07:41:45.141Z,102461.71
2019-04-21T07:44:18.127Z,102462.15
2019-04-21T07:46:56.375Z,102456.13
2019-04-21T07:49:53.036Z,102454.70
2019-04-21T07:52:49.100Z,102447.77
2019-04-21T07:57:56.153Z,102453.16
2019-04-21T08:00:45.508Z,102444.09
2019-04-21T08:03:15.935Z,102458.00
2019-04-21T08:05:53.037Z,102438.98
2019-04-21T08:08:31.460Z,102443.06
2019-04-21T08:11:01.591Z,102438.38
2019-04-21T08:16:24.116Z,102427.63
2019-04-21T08:19:03.222Z,102417.11
2019-04-21T08:21:33.894Z,102413.89
2019-04-21T08:24:07.693Z,102413.42
2019-04-21T08:27:05.117Z,102410.72
2019-04-21T08:29:44.804Z,102414.82
2019-04-21T08:32:16.066Z,102406.49
2019-04-21T08:37:11.746Z,102407.00
2019-04-21T08:40:04.431Z,102397.51
2019-04-21T08:42:35.831Z,102396.66
2019-04-21T08:45:11.101Z,102397.92
2019-04-21T08:47:45.756Z,102387.19
2019-04-21T08:50:20.889Z,102379.88
2019-04-21T08:55:51.047Z,102381.02
2019-04-21T08:58:57.557Z,102381.63
2019-04-21T09:01:46.578Z,102376.64
2019-04-21T09:04:13.216Z,102375.23
2019-04-21T09:07:05.145Z,102372.88
2019-04-21T09:09:29.116Z,102370.05
2019-04-21T09:12:04.441Z,102369.99
2019-04-21T09:14:41.486Z,102371.12
2019-04-21T09:17:14.858Z,102364.10
2019-04-21T09:22:37.387Z,102356.63
2019-04-21T09:25:09.150Z,102360.30
2019-04-21T09:27:53.697Z,102356.02
2019-04-21T09:30:08.718Z,102349.21
2019-04-21T09:32:44.567Z,102343.73
2019-04-21T09:35:20.848Z,102342.80
2019-04-21T09:38:03.954Z,102345.16
2019-04-21T09:40:40.092Z,102334.58
2019-04-21T09:43:13.798Z,102330.87
2019-04-21T09:45:49.630Z,102321.83
2019-04-21T09:48:37.425Z,102325.81
2019-04-21T09:51:06.467Z,102319.70
2019-04-21T09:53:43.792Z,102305.31
2019-04-21T09:56:30.495Z,102311.17
2019-04-21T09:59:04.087Z,102311.17
2019-04-21T10:01:50.069Z,102309.83
2019-04-21T10:04:10.434Z,102310.92
2019-04-21T10:06:45.655Z,102297.58
2019-04-21T10:09:33.346Z,102294.06
2019-04-21T10:12:09.863Z,102289.47
2019-04-21T10:14:45.225Z,102287.87
2019-04-21T10:17:23.949Z,102282.53
2019-04-21T10:19:59.196Z,102276.56
2019-04-21T10:22:35.593Z,102273.81
2019-04-21T10:25:12.563Z,102267.63
2019-04-21T10:27:47.908Z,102268.42
2019-04-21T10:30:24.598Z,102259.12
2019-04-21T10:33:00.743Z,102256.41
2019-04-21T10:35:37.056Z,102250.84
2019-04-21T10:38:22.678Z,102250.50
2019-04-21T10:40:49.718Z,102242.52
2019-04-21T10:43:25.697Z,102243.00
2019-04-21T10:46:01.961Z,102242.02
2019-04-21T10:48:38.231Z,102242.75
2019-04-21T10:51:14.896Z,102235.42
2019-04-21T10:53:53.874Z,102232.16
2019-04-21T10:56:34.384Z,102216.41
2019-04-21T10:59:04.600Z,102208.50
2019-04-21T11:01:41.052Z,102211.95
2019-04-21T11:04:34.661Z,102207.14
2019-04-21T11:07:26.180Z,102198.64
2019-04-21T11:10:22.175Z,102198.95
2019-04-21T11:12:58.623Z,102202.20
2019-04-21T11:15:34.993Z,102195.87
2019-04-21T11:18:10.296Z,102191.18
2019-04-21T11:20:46.627Z,102182.20
2019-04-21T11:23:22.548Z,102179.92
2019-04-21T11:25:58.110Z,102182.05
2019-04-21T11:28:34.617Z,102181.17
2019-04-21T11:31:11.072Z,102183.96
2019-04-21T11:33:47.146Z,102180.67
2019-04-21T11:36:22.609Z,102172.77
2019-04-21T11:39:29.237Z,102171.86
2019-04-21T11:41:57.467Z,102156.39
2019-04-21T11:44:33.145Z,102157.58
2019-04-21T11:47:10.521Z,102148.85
2019-04-21T11:49:45.689Z,102150.01
2019-04-21T11:52:22.603Z,102143.98
2019-04-21T11:54:58.613Z,102148.62
2019-04-21T11:57:38.320Z,102142.16
2019-04-21T12:00:11.534Z,102136.41
2019-04-21T12:02:47.757Z,102131.36
2019-04-21T12:05:23.764Z,102127.95
2019-04-21T12:08:00.144Z,102125.52
2019-04-21T12:10:35.568Z,102127.16
2019-04-21T12:13:11.990Z,102117.77
2019-04-21T12:15:47.271Z,102113.42
2019-04-21T12:18:25.048Z,102111.27
2019-04-21T12:20:59.479Z,102109.56
2019-04-21T12:23:34.792Z,102104.09
2019-04-21T12:26:10.099Z,102094.81
2019-04-21T12:28:45.950Z,102092.62
2019-04-21T12:31:41.367Z,102091.15
2019-04-21T12:34:16.569Z,102085.00
2019-04-21T12:36:52.822Z,102074.16
2019-04-21T12:39:27.885Z,102072.47
2019-04-21T12:42:04.667Z,102063.86
2019-04-21T12:44:41.256Z,102070.87
2019-04-21T12:47:16.532Z,102059.00
2019-04-21T12:49:52.057Z,102051.36
2019-04-21T12:52:27.749Z,102055.11
2019-04-21T12:55:05.733Z,102043.95
2019-04-21T12:57:41.881Z,102038.09
2019-04-21T13:00:18.826Z,102031.13
2019-04-21T13:02:54.173Z,102023.20
2019-04-21T13:05:29.624Z,102025.52
2019-04-21T13:08:04.826Z,102024.95
2019-04-21T13:10:40.217Z,102023.73
2019-04-21T13:13:15.324Z,102023.08
2019-04-21T13:15:51.567Z,102015.90
2019-04-21T13:18:27.169Z,102014.03
2019-04-21T13:21:03.900Z,102013.58
2019-04-21T13:23:39.150Z,102009.57
2019-04-21T13:26:16.147Z,101997.61
2019-04-21T13:28:52.258Z,101996.49
2019-04-21T13:31:27.922Z,101993.39
2019-04-21T13:34:04.167Z,101986.91
2019-04-21T13:36:41.416Z,101975.13
2019-04-21T13:40:07.855Z,101971.73
2019-04-21T13:42:39.408Z,101975.05
2019-04-21T13:45:14.289Z,101978.36
2019-04-21T13:47:54.755Z,101964.80
2019-04-21T13:50:31.188Z,101963.59
2019-04-21T13:53:06.959Z,101960.29
2019-04-21T13:55:42.841Z,101960.19
2019-04-21T13:58:17.822Z,101955.53
2019-04-21T14:00:54.230Z,101954.41
2019-04-21T14:03:29.381Z,101954.58
2019-04-21T14:06:04.865Z,101944.00
2019-04-21T14:09:01.168Z,101935.94
2019-04-21T14:11:38.730Z,101935.41
2019-04-21T14:14:14.444Z,101930.84
2019-04-21T14:16:49.907Z,101923.54
2019-04-21T14:19:25.615Z,101923.19
2019-04-21T14:22:01.210Z,101907.43
2019-04-21T14:24:38.664Z,101913.05
2019-04-21T14:27:14.379Z,101911.57
2019-04-21T14:29:51.578Z,101908.20
2019-04-21T14:32:29.535Z,101902.70
2019-04-21T14:35:06.936Z,101902.17
2019-04-21T14:37:44.512Z,101894.13
2019-04-21T14:40:23.699Z,101896.56
2019-04-21T14:43:00.262Z,101892.27
2019-04-21T14:45:41.095Z,101888.69
2019-04-21T14:48:34.923Z,101888.00
2019-04-21T14:52:05.465Z,101872.28
2019-04-21T14:55:00.603Z,101889.90
2019-04-21T14:57:36.983Z,101876.06
2019-04-21T15:00:22.854Z,101873.97
2019-04-21T15:02:57.918Z,101869.48
2019-04-21T15:05:33.475Z,101870.69
2019-04-21T15:08:11.029Z,101868.74
2019-04-21T15:10:47.201Z,101859.34
2019-04-21T15:13:23.712Z,101857.77
2019-04-21T15:15:58.873Z,101855.22
2019-04-21T15:18:34.689Z,101849.86
2019-04-21T15:21:11.046Z,101850.19
2019-04-21T15:23:48.457Z,101851.94
2019-04-21T15:26:24.150Z,101851.98
2019-04-21T15:28:59.422Z,101849.66
2019-04-21T15:31:39.192Z,101852.37
2019-04-21T15:34:13.020Z,101843.98
2019-04-21T15:36:52.404Z,101839.45
2019-04-21T15:39:28.033Z,101841.66
2019-04-21T15:42:03.397Z,101835.03
2019-04-21T15:44:38.777Z,101833.20
2019-04-21T15:47:13.940Z,101833.92
2019-04-21T15:50:02.904Z,101838.36
2019-04-21T15:52:33.850Z,101831.73
2019-04-21T15:55:39.011Z,101825.35
2019-04-21T15:58:34.617Z,101824.61
2019-04-21T16:01:38.895Z,101816.37
2019-04-21T16:04:14.707Z,101812.42
2019-04-21T16:06:50.685Z,101811.66
2019-04-21T16:09:28.271Z,101813.27
2019-04-21T16:12:03.980Z,101801.42
2019-04-21T16:14:44.987Z,101813.23
2019-04-21T16:17:21.287Z,101801.23
2019-04-21T16:19:56.469Z,101799.41
2019-04-21T16:22:32.660Z,101795.55
2019-04-21T16:25:10.614Z,101791.69
2019-04-21T16:27:45.828Z,101782.41
2019-04-21T16:30:22.044Z,101786.46
2019-04-21T16:32:57.146Z,101782.11
2019-04-21T16:35:33.707Z,101771.15
2019-04-21T16:38:08.859Z,101767.70
2019-04-21T16:40:52.536Z,101765.80
2019-04-21T16:43:20.950Z,101773.64
2019-04-21T16:45:57.113Z,101764.92
2019-04-21T16:48:33.799Z,101763.11
2019-04-21T16:51:09.914Z,101761.47
2019-04-21T16:53:50.300Z,101755.67
2019-04-21T16:56:52.335Z,101756.52
2019-04-21T16:59:32.729Z,101761.70
2019-04-21T17:02:07.882Z,101754.80
2019-04-21T17:04:44.368Z,101755.23
2019-04-21T17:07:19.984Z,101762.27
2019-04-21T17:09:56.752Z,101752.14
2019-04-21T17:12:33.015Z,101757.32
2019-04-21T17:15:25.198Z,101758.56
2019-04-21T17:18:06.057Z,101757.82
2019-04-21T17:20:34.246Z,101755.93
2019-04-21T17:23:01.766Z,101760.23
2019-04-21T17:25:41.175Z,101750.96
2019-04-21T17:28:17.371Z,101753.86
2019-04-21T17:30:55.757Z,101752.80
2019-04-21T17:33:32.349Z,101757.16
2019-04-21T17:36:09.238Z,101750.56
2019-04-21T17:38:44.273Z,101746.39
2019-04-21T17:41:28.996Z,101754.26
2019-04-21T17:43:56.286Z,101751.75
2019-04-21T17:46:43.138Z,101749.34
2019-04-21T17:49:08.644Z,101756.23
2019-04-21T17:52:21.630Z,101752.67
2019-04-21T17:55:18.426Z,101752.43
2019-04-21T17:58:06.596Z,101748.84
2019-04-21T18:03:40.758Z,101741.84
2019-04-21T18:06:01.641Z,101746.54
2019-04-21T18:08:47.931Z,101742.05
2019-04-21T18:11:15.375Z,101748.41
2019-04-21T18:13:41.979Z,101742.68
2019-04-21T18:16:26.637Z,101741.84
2019-04-21T18:18:56.998Z,101743.31
2019-04-21T18:21:46.912Z,101746.48
2019-04-21T18:24:22.475Z,101742.16
2019-04-21T18:26:57.244Z,101749.38
2019-04-21T18:29:31.709Z,101749.19
2019-04-21T18:32:08.339Z,101749.80
2019-04-21T18:35:13.531Z,101752.06
2019-04-21T18:38:08.094Z,101753.91
2019-04-21T18:40:42.337Z,101755.00
2019-04-21T18:46:31.399Z,101753.36
2019-04-21T18:48:53.426Z,101756.14
2019-04-21T18:51:57.161Z,101758.10
2019-04-21T18:54:45.813Z,101759.80
2019-04-21T18:57:18.622Z,101753.75
2019-04-21T18:59:47.270Z,101756.34
2019-04-21T19:02:22.472Z,101762.22
2019-04-21T19:05:05.338Z,101764.56
2019-04-21T19:07:59.282Z,101773.89
2019-04-21T19:10:35.464Z,101768.29
2019-04-21T19:13:28.262Z,101773.75
2019-04-21T19:15:48.147Z,101769.34
2019-04-21T19:20:54.039Z,101773.07
2019-04-21T19:23:45.316Z,101775.91
2019-04-21T19:26:21.897Z,101769.88
2019-04-21T19:28:56.052Z,101776.11
2019-04-21T19:31:24.815Z,101774.96
2019-04-21T19:33:51.681Z,101777.88
2019-04-21T19:36:21.421Z,101778.77
2019-04-21T19:39:07.593Z,101780.10
2019-04-21T19:41:55.538Z,101780.19
2019-04-21T19:44:26.333Z,101779.13
2019-04-21T19:47:13.749Z,101778.11
2019-04-21T19:49:50.066Z,101773.06
2019-04-21T19:52:20.290Z,101764.36
2019-04-21T19:54:48.198Z,101759.05
2019-04-21T19:57:20.976Z,101766.78
2019-04-21T20:00:01.368Z,101753.02
2019-04-21T20:02:34.286Z,101757.56
2019-04-21T20:05:16.442Z,101756.22
2019-04-21T20:08:04.049Z,101760.19
2019-04-21T20:10:44.162Z,101759.70
2019-04-21T20:13:26.112Z,101755.19
2019-04-21T20:15:59.750Z,101751.77
2019-04-21T20:18:25.142Z,101754.43
2019-04-21T20:20:54.353Z,101750.44
2019-04-21T20:23:34.864Z,101747.98
2019-04-21T20:26:09.557Z,101749.02
2019-04-21T20:28:53.168Z,101747.67
2019-04-21T20:31:36.114Z,101739.93
2019-04-21T20:34:17.742Z,101742.55
2019-04-21T20:36:59.749Z,101738.84
2019-04-21T20:39:21.343Z,101741.19
2019-04-21T20:42:01.865Z,101735.60
2019-04-21T20:44:43.752Z,101731.17
2019-04-21T20:47:16.058Z,101733.48
2019-04-21T20:49:57.178Z,101727.61
2019-04-21T20:52:38.353Z,101726.00
2019-04-21T20:55:07.683Z,101727.58
2019-04-21T20:57:50.637Z,101729.58
2019-04-21T21:00:30.148Z,101721.59
2019-04-21T21:03:09.246Z,101716.20
2019-04-21T21:05:37.587Z,101715.42
2019-04-21T21:08:24.061Z,101713.27
2019-04-21T21:10:52.764Z,101716.50
2019-04-21T21:13:31.982Z,101716.83
2019-04-21T21:16:38.501Z,101714.97
2019-04-21T21:21:23.000Z,101715.83
2019-04-21T21:23:58.936Z,101712.61
2019-04-21T21:26:37.723Z,101713.19
2019-04-21T21:29:06.506Z,101706.92
2019-04-21T21:31:49.083Z,101706.59
2019-04-21T21:34:28.091Z,101707.39
2019-04-21T21:37:17.735Z,101710.75
2019-04-21T21:39:48.850Z,101704.41
2019-04-21T21:42:02.732Z,101707.89
2019-04-21T21:44:41.723Z,101704.20
2019-04-21T21:47:24.196Z,101701.30
2019-04-21T21:50:01.307Z,101706.31
2019-04-21T21:52:39.790Z,101703.91
2019-04-21T21:55:05.699Z,101701.77
2019-04-21T21:57:47.579Z,101703.30
2019-04-21T22:00:21.813Z,101702.52
2019-04-21T22:03:03.873Z,101700.33
2019-04-21T22:05:48.244Z,101707.39
2019-04-21T22:08:12.425Z,101704.94
2019-04-21T22:10:49.533Z,101699.06
2019-04-21T22:13:37.639Z,101703.23
2019-04-21T22:16:12.491Z,101704.36
2019-04-21T22:19:04.720Z,101697.08
2019-04-21T22:21:44.363Z,101704.48
2019-04-21T22:24:05.700Z,101705.09
2019-04-21T22:26:35.050Z,101709.78
2019-04-21T22:29:10.024Z,101713.98
2019-04-21T22:32:15.254Z,101715.27
2019-04-21T22:34:52.313Z,101709.67
2019-04-21T22:37:38.032Z,101703.78
2019-04-21T22:40:12.705Z,101706.05
2019-04-21T22:42:48.515Z,101704.45
2019-04-21T22:45:15.470Z,101706.20
2019-04-21T22:47:52.020Z,101704.69
2019-04-21T22:50:31.168Z,101705.75
2019-04-21T22:53:09.622Z,101706.31
2019-04-21T22:55:45.004Z,101706.20
2019-04-21T22:58:28.223Z,101709.91
2019-04-21T23:01:01.569Z,101703.19
2019-04-21T23:03:35.609Z,101701.52
2019-04-21T23:06:19.195Z,101704.67
2019-04-21T23:08:49.472Z,101701.66
2019-04-21T23:11:28.087Z,101702.44
2019-04-21T23:14:06.009Z,101702.74
2019-04-21T23:16:41.426Z,101706.42
2019-04-21T23:19:28.016Z,101705.88
2019-04-21T23:22:09.522Z,101709.27
2019-04-21T23:24:54.557Z,101704.08
2019-04-21T23:27:15.008Z,101712.59
2019-04-21T23:30:09.807Z,101705.59
2019-04-21T23:32:30.433Z,101701.63
2019-04-21T23:34:56.193Z,101698.11
2019-04-21T23:37:34.112Z,101697.22
2019-04-21T23:40:16.329Z,101690.80
2019-04-21T23:42:49.043Z,101691.66
2019-04-21T23:45:30.491Z,101693.27
2019-04-21T23:48:15.885Z,101693.14
2019-04-21T23:50:45.897Z,101691.68
2019-04-21T23:53:15.450Z,101692.42
2019-04-21T23:55:50.477Z,101687.77
2019-04-21T23:58:29.452Z,101687.15
